createdAt,value
2023-05-25T00:01:55.403Z,100876.75
2023-05-25T00:04:27.904Z,100875.47
2023-05-25T00:06:56.372Z,100867.94
2023-05-25T00:09:26.297Z,100865.78
2023-05-25T00:11:54.619Z,100866.44
2023-05-25T00:14:24.486Z,100865.81
2023-05-25T00:16:54.629Z,100857.31
2023-05-25T00:19:23.066Z,100853.09
2023-05-25T00:21:52.029Z,100861.97
2023-05-25T00:24:20.336Z,100859.81
2023-05-25T00:26:48.725Z,100858.84
2023-05-25T00:29:17.221Z,100854.66
2023-05-25T00:31:45.467Z,100851.22
2023-05-25T00:34:13.722Z,100847.50
2023-05-25T00:36:44.060Z,100850.63
2023-05-25T00:39:12.364Z,100842.75
2023-05-25T00:41:45.163Z,100845.56
2023-05-25T00:44:22.310Z,100844.91
2023-05-25T00:46:53.210Z,100833.50
2023-05-25T00:49:26.060Z,100841.13
2023-05-25T00:51:54.620Z,100846.81
2023-05-25T00:54:23.379Z,100839.06
2023-05-25T00:56:58.721Z,100842.19
2023-05-25T00:59:37.863Z,100843.56
2023-05-25T01:02:09.264Z,100840.13
2023-05-25T01:05:01.846Z,100842.06
2023-05-25T01:07:33.443Z,100838.53
2023-05-25T01:10:06.149Z,100834.19
2023-05-25T01:12:39.275Z,100835.16
2023-05-25T01:15:08.136Z,100835.38
2023-05-25T01:17:38.968Z,100829.56
2023-05-25T01:20:12.136Z,100827.16
2023-05-25T01:23:13.010Z,100834.84
2023-05-25T01:25:46.918Z,100833.44
2023-05-25T01:28:29.455Z,100830.50
2023-05-25T01:30:58.537Z,100834.66
2023-05-25T01:33:29.830Z,100838.78
2023-05-25T01:35:59.070Z,100828.63
2023-05-25T01:38:27.725Z,100827.41
2023-05-25T01:40:56.052Z,100836.53
2023-05-25T01:43:24.567Z,100839.41
2023-05-25T01:45:59.293Z,100844.34
2023-05-25T01:48:38.430Z,100839.44
2023-05-25T01:51:17.261Z,100836.19
2023-05-25T01:53:52.151Z,100835.63
2023-05-25T01:56:24.085Z,100837.13
2023-05-25T01:58:52.872Z,100841.13
2023-05-25T02:01:23.819Z,100846.50
2023-05-25T02:03:53.542Z,100853.06
2023-05-25T02:06:22.021Z,100849.00
2023-05-25T02:08:50.439Z,100853.97
2023-05-25T02:11:18.771Z,100854.38
2023-05-25T02:13:47.178Z,100860.19
2023-05-25T02:16:15.506Z,100857.59
2023-05-25T02:18:45.477Z,100852.34
2023-05-25T02:21:13.959Z,100861.63
2023-05-25T02:23:42.602Z,100859.13
2023-05-25T02:26:10.882Z,100859.50
2023-05-25T02:28:39.177Z,100861.66
2023-05-25T02:31:07.481Z,100862.22
2023-05-25T02:33:35.750Z,100871.38
2023-05-25T02:36:04.192Z,100874.38
2023-05-25T02:38:32.504Z,100880.84
2023-05-25T02:41:00.736Z,100881.97
2023-05-25T02:43:28.975Z,100889.22
2023-05-25T02:45:57.230Z,100888.56
2023-05-25T02:48:25.726Z,100893.31
2023-05-25T02:50:54.042Z,100896.44
2023-05-25T02:53:22.308Z,100895.84
2023-05-25T02:55:50.553Z,100904.38
2023-05-25T02:58:18.797Z,100909.16
2023-05-25T03:00:47.714Z,100908.59
2023-05-25T03:03:16.113Z,100920.72
2023-05-25T03:05:44.508Z,100919.22
2023-05-25T03:08:12.963Z,100923.06
2023-05-25T03:10:41.225Z,100924.16
2023-05-25T03:13:09.482Z,100934.31
2023-05-25T03:15:37.726Z,100932.00
2023-05-25T03:18:06.400Z,100932.47
2023-05-25T03:20:35.534Z,100928.41
2023-05-25T03:23:04.235Z,100938.63
2023-05-25T03:25:32.603Z,100944.31
2023-05-25T03:28:00.897Z,100948.16
2023-05-25T03:30:29.176Z,100944.84
2023-05-25T03:32:57.465Z,100954.94
2023-05-25T03:35:26.091Z,100952.75
2023-05-25T03:37:54.384Z,100956.59
2023-05-25T03:40:22.669Z,100962.28
2023-05-25T03:42:51.226Z,100967.00
2023-05-25T03:45:19.529Z,100970.84
2023-05-25T03:47:48.890Z,100971.13
2023-05-25T03:50:17.321Z,100968.69
2023-05-25T03:52:45.585Z,100974.97
2023-05-25T03:55:16.114Z,100980.47
2023-05-25T03:57:44.399Z,100980.88
2023-05-25T04:00:13.354Z,100981.22
2023-05-25T04:02:42.044Z,100985.13
2023-05-25T04:05:10.768Z,100987.16
2023-05-25T04:07:39.053Z,100990.91
2023-05-25T04:10:08.123Z,100991.00
2023-05-25T04:12:37.146Z,100991.13
2023-05-25T04:15:06.493Z,100988.75
2023-05-25T04:17:36.870Z,100991.56
2023-05-25T04:20:09.813Z,100994.53
2023-05-25T04:22:40.663Z,100999.28
2023-05-25T04:25:09.310Z,101009.31
2023-05-25T04:27:37.677Z,101010.41
2023-05-25T04:30:06.495Z,101016.75
2023-05-25T04:32:38.121Z,101024.91
2023-05-25T04:35:07.235Z,101025.97
2023-05-25T04:37:37.906Z,101017.19
2023-05-25T04:40:14.894Z,101018.19
2023-05-25T04:42:43.525Z,101020.19
2023-05-25T04:45:12.100Z,101017.59
2023-05-25T04:47:41.882Z,101024.78
2023-05-25T04:50:11.874Z,101033.81
2023-05-25T04:52:40.196Z,101037.63
2023-05-25T04:55:08.897Z,101028.88
2023-05-25T04:57:37.169Z,101026.34
2023-05-25T05:00:06.961Z,101027.38
2023-05-25T05:02:35.405Z,101022.09
2023-05-25T05:05:03.658Z,101029.41
2023-05-25T05:07:32.556Z,101026.94
2023-05-25T05:10:00.873Z,101029.69
2023-05-25T05:12:29.137Z,101023.56
2023-05-25T05:14:57.534Z,101027.22
2023-05-25T05:17:27.468Z,101013.13
2023-05-25T05:19:55.704Z,101016.88
2023-05-25T05:22:23.989Z,101018.72
2023-05-25T05:24:52.273Z,101015.28
2023-05-25T05:27:20.772Z,101023.31
2023-05-25T05:29:49.093Z,101021.66
2023-05-25T05:32:17.352Z,101021.78
2023-05-25T05:34:45.573Z,101025.47
2023-05-25T05:37:13.865Z,101027.31
2023-05-25T05:39:42.219Z,101031.72
2023-05-25T05:42:10.425Z,101027.38
2023-05-25T05:44:38.636Z,101032.84
2023-05-25T05:47:07.325Z,101028.44
2023-05-25T05:49:35.696Z,101034.91
2023-05-25T05:52:05.515Z,101035.91
2023-05-25T05:54:33.820Z,101031.63
2023-05-25T05:57:02.645Z,101039.88
2023-05-25T05:59:30.917Z,101024.81
2023-05-25T06:01:59.281Z,101033.00
2023-05-25T06:04:29.595Z,101031.47
2023-05-25T06:06:57.931Z,101034.25
2023-05-25T06:09:27.512Z,101036.13
2023-05-25T06:11:55.804Z,101032.59
2023-05-25T06:14:25.155Z,101036.16
2023-05-25T06:16:54.420Z,101035.44
2023-05-25T06:19:22.682Z,101036.50
2023-05-25T06:21:50.882Z,101033.06
2023-05-25T06:24:19.141Z,101035.81
2023-05-25T06:26:47.405Z,101029.66
2023-05-25T06:29:17.158Z,101031.53
2023-05-25T06:31:45.755Z,101030.78
2023-05-25T06:34:14.110Z,101025.53
2023-05-25T06:36:42.596Z,101021.13
2023-05-25T06:39:11.045Z,101022.03
2023-05-25T06:41:41.882Z,101018.56
2023-05-25T06:44:10.271Z,101014.28
2023-05-25T06:46:40.065Z,101024.16
2023-05-25T06:49:08.491Z,101022.41
2023-05-25T06:51:36.713Z,101019.81
2023-05-25T06:54:05.092Z,101016.28
2023-05-25T06:56:33.366Z,101018.16
2023-05-25T06:59:01.589Z,101023.47
2023-05-25T07:01:29.885Z,101023.59
2023-05-25T07:03:58.142Z,101028.97
2023-05-25T07:06:27.010Z,101035.34
2023-05-25T07:08:56.595Z,101029.25
2023-05-25T07:11:24.815Z,101026.75
2023-05-25T07:13:53.085Z,101031.28
2023-05-25T07:16:21.347Z,101036.63
2023-05-25T07:18:49.624Z,101030.41
2023-05-25T07:21:18.264Z,101029.50
2023-05-25T07:23:46.480Z,101025.19
2023-05-25T07:26:15.379Z,101020.84
2023-05-25T07:28:43.824Z,101027.94
2023-05-25T07:31:12.820Z,101020.03
2023-05-25T07:33:41.053Z,101019.19
2023-05-25T07:36:10.743Z,101023.56
2023-05-25T07:38:39.024Z,101021.88
2023-05-25T07:41:07.370Z,101031.72
2023-05-25T07:43:35.616Z,101023.81
2023-05-25T07:46:03.877Z,101032.66
2023-05-25T07:48:32.092Z,101016.72
2023-05-25T07:51:00.696Z,101021.06
2023-05-25T07:53:28.970Z,101026.34
2023-05-25T07:55:57.156Z,101016.69
2023-05-25T07:58:25.692Z,101021.19
2023-05-25T08:00:53.923Z,101016.88
2023-05-25T08:03:31.828Z,101008.88
2023-05-25T08:06:04.295Z,101009.81
2023-05-25T08:08:32.507Z,101010.78
2023-05-25T08:11:00.840Z,100998.31
2023-05-25T08:13:29.095Z,101000.88
2023-05-25T08:15:57.348Z,101000.88
2023-05-25T08:18:25.948Z,100990.25
2023-05-25T08:20:54.150Z,100975.06
2023-05-25T08:23:22.850Z,100980.34
2023-05-25T08:25:51.992Z,100973.41
2023-05-25T08:28:21.602Z,100969.88
2023-05-25T08:30:49.957Z,100972.53
2023-05-25T08:33:18.292Z,100975.19
2023-05-25T08:35:46.809Z,100976.09
2023-05-25T08:38:15.207Z,100965.44
2023-05-25T08:40:44.767Z,100972.47
2023-05-25T08:43:13.066Z,100968.78
2023-05-25T08:45:45.330Z,100962.56
2023-05-25T08:50:53.445Z,100960.81
2023-05-25T08:53:23.699Z,100952.78
2023-05-25T08:55:54.204Z,100957.09
2023-05-25T08:58:32.100Z,100954.59
2023-05-25T09:01:05.343Z,100955.47
2023-05-25T09:03:36.101Z,100952.81
2023-05-25T09:06:04.703Z,100952.78
2023-05-25T09:08:33.537Z,100948.25
2023-05-25T09:11:03.137Z,100949.97
2023-05-25T09:13:31.719Z,100942.06
2023-05-25T09:16:00.656Z,100936.72
2023-05-25T09:18:29.151Z,100949.25
2023-05-25T09:20:57.858Z,100943.94
2023-05-25T09:23:26.524Z,100938.47
2023-05-25T09:25:55.583Z,100943.94
2023-05-25T09:28:27.446Z,100942.13
2023-05-25T09:30:57.220Z,100936.72
2023-05-25T09:33:25.708Z,100945.53
2023-05-25T09:35:54.387Z,100942.88
2023-05-25T09:38:23.502Z,100943.78
2023-05-25T09:40:52.652Z,100948.31
2023-05-25T09:43:36.544Z,100946.63
2023-05-25T09:46:09.233Z,100947.50
2023-05-25T09:48:37.880Z,100947.47
2023-05-25T09:51:09.583Z,100949.25
2023-05-25T09:53:38.504Z,100946.59
2023-05-25T09:56:07.266Z,100948.38
2023-05-25T09:58:35.503Z,100947.38
2023-05-25T10:01:05.393Z,100945.47
2023-05-25T10:03:34.007Z,100944.53
2023-05-25T10:06:02.967Z,100944.53
2023-05-25T10:08:31.778Z,100943.56
2023-05-25T10:11:00.545Z,100938.25
2023-05-25T10:13:30.908Z,100938.34
2023-05-25T10:16:00.205Z,100934.91
2023-05-25T10:18:33.953Z,100935.75
2023-05-25T10:21:07.793Z,100941.09
2023-05-25T10:23:45.627Z,100934.06
2023-05-25T10:26:17.974Z,100940.22
2023-05-25T10:28:47.291Z,100929.56
2023-05-25T10:31:17.708Z,100936.72
2023-05-25T10:33:50.703Z,100940.34
2023-05-25T10:36:22.473Z,100943.94
2023-05-25T10:38:53.180Z,100941.38
2023-05-25T10:41:22.523Z,100940.44
2023-05-25T10:43:54.168Z,100940.44
2023-05-25T10:46:23.372Z,100937.78
2023-05-25T10:49:01.456Z,100936.91
2023-05-25T10:51:40.377Z,100936.06
2023-05-25T10:54:08.832Z,100935.13
2023-05-25T10:56:37.272Z,100936.16
2023-05-25T10:59:05.613Z,100934.41
2023-05-25T11:01:37.359Z,100932.59
2023-05-25T11:04:18.102Z,100933.38
2023-05-25T11:06:49.287Z,100928.06
2023-05-25T11:09:27.687Z,100929.78
2023-05-25T11:12:00.649Z,100929.00
2023-05-25T11:14:30.692Z,100932.53
2023-05-25T11:17:15.706Z,100928.16
2023-05-25T11:19:51.561Z,100926.34
2023-05-25T11:22:25.296Z,100923.66
2023-05-25T11:24:54.997Z,100927.13
2023-05-25T11:27:29.076Z,100929.06
2023-05-25T11:29:58.604Z,100926.41
2023-05-25T11:32:30.095Z,100925.59
2023-05-25T11:34:59.886Z,100930.91
2023-05-25T11:37:32.198Z,100931.78
2023-05-25T11:40:00.463Z,100931.78
2023-05-25T11:42:30.249Z,100926.44
2023-05-25T11:45:03.613Z,100928.31
2023-05-25T11:47:33.170Z,100926.69
2023-05-25T11:50:02.354Z,100924.97
2023-05-25T11:52:30.619Z,100913.56
2023-05-25T11:54:58.997Z,100908.25
2023-05-25T11:57:27.516Z,100909.22
2023-05-25T11:59:58.635Z,100904.78
2023-05-25T12:02:27.651Z,100905.56
2023-05-25T12:04:56.855Z,100908.06
2023-05-25T12:07:32.148Z,100906.25
2023-05-25T12:10:11.503Z,100894.81
2023-05-25T12:12:45.210Z,100893.03
2023-05-25T12:15:24.419Z,100890.34
2023-05-25T12:17:54.663Z,100891.16
2023-05-25T12:20:23.515Z,100893.72
2023-05-25T12:22:52.111Z,100890.22
2023-05-25T12:25:22.616Z,100885.81
2023-05-25T12:28:10.657Z,100890.28
2023-05-25T12:30:39.068Z,100884.00
2023-05-25T12:33:07.570Z,100877.78
2023-05-25T12:35:50.402Z,100884.91
2023-05-25T12:38:20.465Z,100887.56
2023-05-25T12:40:48.852Z,100889.31
2023-05-25T12:43:18.297Z,100884.84
2023-05-25T12:45:46.675Z,100890.28
2023-05-25T12:48:15.027Z,100898.34
2023-05-25T12:50:59.119Z,100898.34
2023-05-25T12:53:28.853Z,100889.44
2023-05-25T12:56:04.678Z,100891.25
2023-05-25T12:58:33.014Z,100895.78
2023-05-25T13:01:01.381Z,100898.56
2023-05-25T13:03:29.738Z,100895.91
2023-05-25T13:06:03.207Z,100898.56
2023-05-25T13:08:31.542Z,100901.22
2023-05-25T13:11:00.774Z,100911.88
2023-05-25T13:13:29.067Z,100907.47
2023-05-25T13:15:58.969Z,100912.81
2023-05-25T13:18:27.525Z,100919.81
2023-05-25T13:20:57.116Z,100918.88
2023-05-25T13:23:26.878Z,100925.94
2023-05-25T13:25:55.096Z,100922.34
2023-05-25T13:28:23.482Z,100925.88
2023-05-25T13:30:51.782Z,100932.03
2023-05-25T13:33:20.056Z,100924.91
2023-05-25T13:36:10.559Z,100934.59
2023-05-25T13:38:39.200Z,100927.50
2023-05-25T13:41:07.452Z,100939.91
2023-05-25T13:43:35.829Z,100942.56
2023-05-25T13:46:04.272Z,100934.56
2023-05-25T13:48:32.569Z,100942.50
2023-05-25T13:51:01.119Z,100940.75
2023-05-25T13:53:29.366Z,100939.06
2023-05-25T13:55:57.602Z,100946.19
2023-05-25T13:58:26.068Z,100945.25
2023-05-25T14:00:54.312Z,100943.41
2023-05-25T14:03:22.747Z,100953.22
2023-05-25T14:05:51.750Z,100945.22
2023-05-25T14:08:20.031Z,100946.13
2023-05-25T14:10:48.263Z,100948.78
2023-05-25T14:13:16.595Z,100952.31
2023-05-25T14:15:45.876Z,100951.41
2023-05-25T14:18:14.433Z,100957.53
2023-05-25T14:20:43.552Z,100959.22
2023-05-25T14:23:14.263Z,100959.22
2023-05-25T14:25:44.290Z,100961.00
2023-05-25T14:28:12.732Z,100960.00
2023-05-25T14:30:41.008Z,100964.47
2023-05-25T14:33:14.773Z,100961.81
2023-05-25T14:35:43.734Z,100961.63
2023-05-25T14:38:12.240Z,100972.97
2023-05-25T14:40:40.525Z,100967.53
2023-05-25T14:43:08.806Z,100963.13
2023-05-25T14:45:37.028Z,100964.13
2023-05-25T14:48:15.932Z,100968.59
2023-05-25T14:50:45.972Z,100962.13
2023-05-25T14:53:14.863Z,100964.63
2023-05-25T14:55:43.705Z,100966.28
2023-05-25T14:58:12.768Z,100971.47
2023-05-25T15:00:40.981Z,100972.28
2023-05-25T15:03:09.440Z,100968.75
2023-05-25T15:05:37.787Z,100969.63
2023-05-25T15:08:06.122Z,100978.53
2023-05-25T15:10:34.416Z,100975.88
2023-05-25T15:13:02.749Z,100973.06
2023-05-25T15:15:31.006Z,100977.50
2023-05-25T15:17:59.292Z,100974.69
2023-05-25T15:20:28.020Z,100980.69
2023-05-25T15:22:56.391Z,100972.59
2023-05-25T15:25:35.163Z,100979.66
2023-05-25T15:28:04.685Z,100981.38
2023-05-25T15:30:35.125Z,100979.66
2023-05-25T15:33:05.345Z,100986.72
2023-05-25T15:35:33.649Z,100983.81
2023-05-25T15:38:02.269Z,100986.22
2023-05-25T15:40:30.549Z,100985.09
2023-05-25T15:42:58.836Z,100980.53
2023-05-25T15:45:27.540Z,100989.19
2023-05-25T15:47:55.984Z,100989.09
2023-05-25T15:50:24.560Z,100994.06
2023-05-25T15:52:52.946Z,100993.81
2023-05-25T15:55:21.577Z,100999.78
2023-05-25T15:57:49.824Z,100999.56
2023-05-25T16:00:18.722Z,101002.09
2023-05-25T16:02:47.044Z,101007.38
2023-05-25T16:05:15.500Z,101008.13
2023-05-25T16:07:43.766Z,101002.56
2023-05-25T16:10:12.108Z,101005.84
2023-05-25T16:12:40.416Z,101009.19
2023-05-25T16:15:09.081Z,101008.88
2023-05-25T16:17:37.344Z,101014.75
2023-05-25T16:20:07.536Z,101015.28
2023-05-25T16:22:35.777Z,101023.88
2023-05-25T16:25:04.033Z,101018.22
2023-05-25T16:27:32.331Z,101021.66
2023-05-25T16:30:00.617Z,101018.22
2023-05-25T16:32:30.379Z,101012.53
2023-05-25T16:34:58.636Z,101007.00
2023-05-25T16:37:27.141Z,101005.75
2023-05-25T16:39:55.489Z,101010.69
2023-05-25T16:42:26.116Z,101015.59
2023-05-25T16:44:54.588Z,101011.69
2023-05-25T16:47:23.460Z,101013.06
2023-05-25T16:49:51.758Z,101019.06
2023-05-25T16:52:19.994Z,101016.13
2023-05-25T16:54:48.269Z,101009.72
2023-05-25T16:57:16.503Z,101012.28
2023-05-25T16:59:44.733Z,101009.47
2023-05-25T17:02:13.049Z,101012.72
2023-05-25T17:04:41.319Z,101007.97
2023-05-25T17:07:09.785Z,101014.75
2023-05-25T17:09:38.034Z,101007.53
2023-05-25T17:12:07.293Z,101011.78
2023-05-25T17:14:35.565Z,101010.38
2023-05-25T17:17:03.897Z,101006.31
2023-05-25T17:19:32.467Z,101005.22
2023-05-25T17:22:00.722Z,101004.50
2023-05-25T17:24:28.970Z,101014.09
2023-05-25T17:26:57.317Z,101004.97
2023-05-25T17:29:25.918Z,101007.28
2023-05-25T17:31:54.792Z,101015.22
2023-05-25T17:34:23.152Z,101001.53
2023-05-25T17:36:51.513Z,100997.53
2023-05-25T17:39:19.829Z,101002.41
2023-05-25T17:41:48.560Z,100996.66
2023-05-25T17:44:18.178Z,100992.78
2023-05-25T17:46:46.704Z,100997.81
2023-05-25T17:49:14.986Z,100997.53
2023-05-25T17:51:43.285Z,100994.69
2023-05-25T17:54:16.137Z,100998.78
2023-05-25T17:56:44.410Z,100996.72
2023-05-25T17:59:12.878Z,101002.44
2023-05-25T18:01:41.687Z,100998.44
2023-05-25T18:04:10.202Z,100991.28
2023-05-25T18:06:38.553Z,100996.53
2023-05-25T18:09:06.789Z,100991.19
2023-05-25T18:11:37.330Z,100995.19
2023-05-25T18:14:06.072Z,100989.38
2023-05-25T18:16:34.588Z,100985.72
2023-05-25T18:19:03.465Z,100987.94
2023-05-25T18:21:33.397Z,100981.41
2023-05-25T18:24:01.800Z,100984.91
2023-05-25T18:26:30.351Z,100988.13
2023-05-25T18:28:58.624Z,100988.00
2023-05-25T18:31:27.985Z,100982.47
2023-05-25T18:33:56.337Z,100984.34
2023-05-25T18:36:24.642Z,100984.91
2023-05-25T18:38:52.926Z,100980.94
2023-05-25T18:41:25.373Z,100985.25
2023-05-25T18:43:53.732Z,100989.66
2023-05-25T18:46:22.449Z,100982.84
2023-05-25T18:48:50.756Z,100980.66
2023-05-25T18:51:23.176Z,100971.06
2023-05-25T18:53:51.467Z,100972.19
2023-05-25T18:56:19.730Z,100980.06
2023-05-25T18:58:48.936Z,100979.09
2023-05-25T19:01:19.314Z,100969.47
2023-05-25T19:03:47.711Z,100975.16
2023-05-25T19:06:16.011Z,100978.09
2023-05-25T19:08:44.465Z,100971.38
2023-05-25T19:11:12.740Z,100973.75
2023-05-25T19:13:40.966Z,100971.81
2023-05-25T19:16:09.513Z,100974.38
2023-05-25T19:18:37.815Z,100960.63
2023-05-25T19:21:06.880Z,100956.94
2023-05-25T19:23:36.024Z,100970.94
2023-05-25T19:26:04.297Z,100959.88
2023-05-25T19:28:32.514Z,100952.97
2023-05-25T19:31:01.750Z,100942.03
2023-05-25T19:33:29.994Z,100941.59
2023-05-25T19:35:58.443Z,100951.69
2023-05-25T19:38:31.495Z,100939.75
2023-05-25T19:41:09.091Z,100934.34
2023-05-25T19:43:38.192Z,100929.63
2023-05-25T19:46:07.050Z,100938.97
2023-05-25T19:48:35.372Z,100927.97
2023-05-25T19:51:03.636Z,100932.75
2023-05-25T19:53:32.291Z,100927.94
2023-05-25T19:56:00.553Z,100928.28
2023-05-25T19:58:28.808Z,100934.09
2023-05-25T20:00:57.254Z,100920.41
2023-05-25T20:03:25.970Z,100936.38
2023-05-25T20:05:54.348Z,100931.00
2023-05-25T20:08:25.234Z,100937.69
2023-05-25T20:10:54.764Z,100931.34
2023-05-25T20:13:22.993Z,100934.91
2023-05-25T20:15:51.352Z,100926.47
2023-05-25T20:18:19.687Z,100925.00
2023-05-25T20:20:48.133Z,100923.53
2023-05-25T20:23:16.519Z,100919.13
2023-05-25T20:25:44.977Z,100918.13
2023-05-25T20:28:13.579Z,100922.53
2023-05-25T20:30:41.851Z,100929.53
2023-05-25T20:33:10.133Z,100917.84
2023-05-25T20:35:39.130Z,100921.44
2023-05-25T20:38:07.520Z,100909.69
2023-05-25T20:40:35.781Z,100918.56
2023-05-25T20:43:04.030Z,100911.00
2023-05-25T20:45:32.552Z,100910.88
2023-05-25T20:48:07.525Z,100911.84
2023-05-25T20:50:35.904Z,100913.28
2023-05-25T20:53:04.158Z,100909.16
2023-05-25T20:55:32.453Z,100907.13
2023-05-25T20:58:01.836Z,100905.78
2023-05-25T21:00:30.141Z,100895.84
2023-05-25T21:02:58.497Z,100901.31
2023-05-25T21:05:27.519Z,100902.91
2023-05-25T21:07:55.766Z,100901.47
2023-05-25T21:10:24.018Z,100897.91
2023-05-25T21:12:52.475Z,100894.28
2023-05-25T21:15:20.770Z,100898.97
2023-05-25T21:17:49.135Z,100895.13
2023-05-25T21:20:17.579Z,100881.41
2023-05-25T21:22:45.836Z,100883.13
2023-05-25T21:25:14.062Z,100879.97
2023-05-25T21:27:42.285Z,100884.88
2023-05-25T21:30:11.046Z,100874.84
2023-05-25T21:32:39.585Z,100871.56
2023-05-25T21:35:08.124Z,100869.94
2023-05-25T21:37:36.377Z,100862.69
2023-05-25T21:40:04.688Z,100858.97
2023-05-25T21:42:32.895Z,100868.56
2023-05-25T21:45:01.211Z,100856.53
2023-05-25T21:47:29.594Z,100859.38
2023-05-25T21:49:58.168Z,100857.13
2023-05-25T21:52:26.468Z,100848.81
2023-05-25T21:54:54.686Z,100853.41
2023-05-25T21:57:22.920Z,100838.53
2023-05-25T21:59:51.517Z,100841.25
2023-05-25T22:02:19.823Z,100831.47
2023-05-25T22:04:48.148Z,100835.34
2023-05-25T22:07:16.642Z,100824.47
2023-05-25T22:09:44.940Z,100829.50
2023-05-25T22:12:13.728Z,100824.47
2023-05-25T22:14:42.021Z,100822.72
2023-05-25T22:17:10.510Z,100820.69
2023-05-25T22:19:38.855Z,100826.00
2023-05-25T22:22:07.670Z,100826.91
2023-05-25T22:24:36.062Z,100820.16
2023-05-25T22:27:04.370Z,100825.31
2023-05-25T22:29:32.646Z,100817.56
2023-05-25T22:32:00.941Z,100810.44
2023-05-25T22:34:29.267Z,100811.44
2023-05-25T22:36:57.601Z,100806.91
2023-05-25T22:39:26.077Z,100811.63
2023-05-25T22:41:54.342Z,100808.34
2023-05-25T22:44:22.640Z,100804.72
2023-05-25T22:46:50.982Z,100801.19
2023-05-25T22:49:19.324Z,100807.81
2023-05-25T22:51:47.591Z,100808.53
2023-05-25T22:54:15.920Z,100800.94
2023-05-25T22:56:44.739Z,100799.47
2023-05-25T22:59:14.263Z,100794.03
2023-05-25T23:01:42.559Z,100789.03
2023-05-25T23:04:10.959Z,100793.16
2023-05-25T23:06:39.405Z,100794.44
2023-05-25T23:09:07.656Z,100787.50
2023-05-25T23:11:35.938Z,100791.84
2023-05-25T23:14:04.329Z,100790.19
2023-05-25T23:16:32.610Z,100781.28
2023-05-25T23:19:01.037Z,100788.88
2023-05-25T23:21:29.445Z,100785.66
2023-05-25T23:23:57.702Z,100791.81
2023-05-25T23:26:26.101Z,100795.06
2023-05-25T23:28:54.399Z,100797.81
2023-05-25T23:31:22.721Z,100806.03
2023-05-25T23:33:50.986Z,100806.31
2023-05-25T23:36:19.416Z,100809.38
2023-05-25T23:38:47.759Z,100814.06
2023-05-25T23:41:17.358Z,100808.38
2023-05-25T23:43:46.390Z,100811.09
2023-05-25T23:46:18.213Z,100815.63
2023-05-25T23:48:47.137Z,100809.72
2023-05-25T23:51:15.467Z,100819.78
2023-05-25T23:53:44.092Z,100807.63
2023-05-25T23:56:12.388Z,100816.47
2023-05-25T23:58:40.769Z,100811.91
